Time;durP1;ratioP1;P1;durP2;ratioP2;P2;SDS_P1;SDS_P2;PMS_P1;PMS_P2;Temp;Humidity;BMP_temperature;BMP_pressure;BME280_temperature;BME280_humidity;BME280_pressure;Samples;Min_cycle;Max_cycle;Signal;HPM_P1;HPM_P2
2022/05/30 00:00:20;;;;;;;1.20;1.10;;;16.40;95.70;;;;;;5066195;28;20181;-71
2022/05/30 00:02:46;;;;;;;1.20;1.00;;;16.40;95.50;;;;;;5049721;28;20215;-72
2022/05/30 00:05:14;;;;;;;3.22;0.80;;;16.40;95.20;;;;;;5053512;28;20479;-72
2022/05/30 00:07:40;;;;;;;0.82;0.82;;;16.50;95.00;;;;;;5067470;28;20198;-72
2022/05/30 00:10:11;;;;;;;0.88;0.88;;;16.50;95.30;;;;;;5067387;28;20210;-72
2022/05/30 00:12:38;;;;;;;0.70;0.70;;;16.50;95.70;;;;;;5054537;28;20202;-72
2022/05/30 00:15:07;;;;;;;0.82;0.82;;;16.50;95.40;;;;;;5067452;28;20747;-72
2022/05/30 00:17:33;;;;;;;0.70;0.70;;;;;;;;;;5064549;28;20193;-72
2022/05/30 00:19:59;;;;;;;0.82;0.82;;;;;;;;;;5087600;28;20256;-72
2022/05/30 00:22:25;;;;;;;0.90;0.90;;;16.50;96.10;;;;;;5063532;28;20265;-72
2022/05/30 00:24:51;;;;;;;0.90;0.90;;;16.50;95.90;;;;;;5062508;28;20186;-72
2022/05/30 00:27:18;;;;;;;2.75;0.90;;;16.50;95.50;;;;;;5071975;28;20588;-72
2022/05/30 00:29:44;;;;;;;2.45;1.40;;;16.40;95.30;;;;;;5073562;28;20179;-73
2022/05/30 00:32:11;;;;;;;3.20;1.30;;;16.40;95.10;;;;;;5074072;28;20195;-71
2022/05/30 00:34:37;;;;;;;1.33;1.33;;;16.30;95.40;;;;;;5071471;28;20175;-71
2022/05/30 00:37:03;;;;;;;1.02;1.02;;;16.30;95.00;;;;;;5070602;28;20655;-71
2022/05/30 00:39:29;;;;;;;0.93;0.93;;;16.30;95.10;;;;;;5066486;28;20186;-71
2022/05/30 00:42:16;;;;;;;1.20;1.10;;;16.20;95.00;;;;;;5067155;28;20219;-71
2022/05/30 00:44:46;;;;;;;1.17;1.17;;;16.10;94.90;;;;;;5069572;28;20189;-70
2022/05/30 00:47:12;;;;;;;2.03;1.60;;;16.00;95.00;;;;;;5065235;28;20258;-71
2022/05/30 00:49:41;;;;;;;1.35;1.35;;;15.90;94.80;;;;;;5071963;28;20193;-71
2022/05/30 00:52:18;;;;;;;0.90;0.90;;;15.90;94.80;;;;;;5068672;28;20239;-70
2022/05/30 00:54:52;;;;;;;0.77;0.77;;;15.80;95.10;;;;;;5068453;28;20186;-70
2022/05/30 00:57:20;;;;;;;1.27;1.00;;;15.80;95.00;;;;;;5066916;28;20178;-71
2022/05/30 01:00:14;;;;;;;1.30;1.30;;;15.70;95.10;;;;;;5067028;28;20183;-71
2022/05/30 01:02:41;;;;;;;3.70;1.30;;;15.60;95.00;;;;;;5084014;28;20267;-71
2022/05/30 01:07:59;;;;;;;1.08;0.98;;;15.50;95.10;;;;;;5083443;28;21130;-71
2022/05/30 01:10:25;;;;;;;1.60;1.00;;;15.50;95.20;;;;;;5089428;28;20627;-71
2022/05/30 01:12:53;;;;;;;0.90;0.90;;;15.50;95.30;;;;;;5083132;28;20336;-71
2022/05/30 01:15:28;;;;;;;1.45;0.73;;;15.40;95.50;;;;;;5086024;28;20198;-71
2022/05/30 01:18:02;;;;;;;1.58;1.40;;;15.40;95.40;;;;;;5084543;28;20197;-71
2022/05/30 01:20:42;;;;;;;0.98;0.98;;;15.30;95.10;;;;;;5082063;28;20745;-71
2022/05/30 01:23:32;;;;;;;1.40;1.30;;;15.30;95.40;;;;;;5086020;28;21010;-70
2022/05/30 01:26:19;;;;;;;0.88;0.88;;;15.30;94.90;;;;;;5089294;28;20313;-71
2022/05/30 01:29:05;;;;;;;0.95;0.95;;;15.20;95.10;;;;;;5081079;28;20193;-71
2022/05/30 01:31:31;;;;;;;1.17;0.95;;;15.10;94.80;;;;;;5083056;28;20186;-71
2022/05/30 01:33:57;;;;;;;2.90;1.13;;;;;;;;;;5087026;28;20190;-71
2022/05/30 01:36:26;;;;;;;1.30;1.20;;;15.10;94.90;;;;;;5079669;28;20353;-72
2022/05/30 01:38:52;;;;;;;0.93;0.93;;;15.10;95.70;;;;;;5079853;28;20191;-71
2022/05/30 01:41:18;;;;;;;1.10;1.10;;;15.10;95.20;;;;;;5065137;28;20297;-71
2022/05/30 01:43:45;;;;;;;1.85;1.30;;;;;;;;;;5072033;28;20296;-70
2022/05/30 01:46:14;;;;;;;4.07;1.55;;;15.00;94.90;;;;;;5055271;28;20293;-71
2022/05/30 01:48:39;;;;;;;2.78;1.25;;;15.00;95.10;;;;;;5067553;28;20907;-72
2022/05/30 01:51:05;;;;;;;1.00;1.00;;;15.00;95.00;;;;;;5073481;28;20356;-72
2022/05/30 01:53:31;;;;;;;0.80;0.80;;;;;;;;;;5065876;28;20268;-72
2022/05/30 01:55:57;;;;;;;0.90;0.90;;;14.90;94.90;;;;;;5066128;28;20183;-72
2022/05/30 01:58:23;;;;;;;0.98;0.98;;;14.90;95.30;;;;;;5070009;28;20972;-71
2022/05/30 02:00:49;;;;;;;1.05;0.90;;;14.90;95.10;;;;;;5064961;28;20571;-71
2022/05/30 02:03:15;;;;;;;1.20;1.17;;;14.90;95.40;;;;;;5067283;28;20187;-71
2022/05/30 02:05:40;;;;;;;1.05;1.05;;;14.90;95.70;;;;;;5070192;28;20233;-72
2022/05/30 02:08:07;;;;;;;0.80;0.80;;;14.90;95.70;;;;;;5064294;28;20612;-71
2022/05/30 02:10:34;;;;;;;0.80;0.80;;;14.90;96.30;;;;;;5065732;28;20234;-71
2022/05/30 02:13:00;;;;;;;2.15;1.08;;;14.80;95.80;;;;;;5066075;28;20196;-70
2022/05/30 02:15:26;;;;;;;0.98;0.98;;;14.80;95.50;;;;;;5069172;28;20187;-70
2022/05/30 02:17:52;;;;;;;1.67;1.15;;;14.70;95.30;;;;;;5064314;28;20267;-70
2022/05/30 02:20:18;;;;;;;0.95;0.88;;;14.70;95.50;;;;;;5066247;28;20229;-71
2022/05/30 02:22:44;;;;;;;1.02;1.02;;;14.70;95.40;;;;;;5069510;28;20219;-71
2022/05/30 02:25:12;;;;;;;0.70;0.70;;;14.70;95.30;;;;;;5069633;28;20174;-71
2022/05/30 02:27:41;;;;;;;1.23;0.98;;;14.70;95.30;;;;;;5053739;28;20179;-71
2022/05/30 02:30:08;;;;;;;2.83;0.88;;;14.60;95.30;;;;;;5064632;28;20516;-71
2022/05/30 02:32:34;;;;;;;1.00;1.00;;;14.60;95.60;;;;;;5068920;28;20605;-71
2022/05/30 02:37:44;;;;;;;0.70;0.70;;;14.60;95.40;;;;;;5061724;28;20319;-70
2022/05/30 02:40:10;;;;;;;0.82;0.60;;;14.60;95.60;;;;;;5067207;28;20675;-72
2022/05/30 02:42:36;;;;;;;0.90;0.85;;;14.50;95.70;;;;;;5070176;28;20203;-72
2022/05/30 02:45:03;;;;;;;0.80;0.80;;;14.50;95.70;;;;;;5065176;28;20967;-72
2022/05/30 02:47:28;;;;;;;1.10;1.10;;;14.50;96.00;;;;;;5067492;28;20301;-72
2022/05/30 02:49:55;;;;;;;1.13;1.02;;;;;;;;;;5063020;28;20249;-72
2022/05/30 02:52:20;;;;;;;1.10;1.10;;;14.50;95.40;;;;;;5068078;28;20193;-72
2022/05/30 02:54:46;;;;;;;1.88;1.17;;;;;;;;;;5065757;28;20182;-72
2022/05/30 02:57:12;;;;;;;1.95;1.20;;;14.40;95.20;;;;;;5069594;28;20573;-72
2022/05/30 02:59:38;;;;;;;1.10;1.10;;;;;;;;;;5066316;28;20194;-70
2022/05/30 03:02:04;;;;;;;1.52;1.52;;;14.40;95.70;;;;;;5067101;28;20340;-72
2022/05/30 03:04:30;;;;;;;2.17;1.50;;;14.40;96.00;;;;;;5065901;28;20221;-70
2022/05/30 03:06:56;;;;;;;1.73;1.58;;;;;;;;;;5066212;28;20193;-72
2022/05/30 03:09:21;;;;;;;5.00;1.52;;;14.40;95.80;;;;;;5071529;28;20179;-71
2022/05/30 03:11:47;;;;;;;2.58;1.92;;;;;;;;;;5069866;28;20293;-71
2022/05/30 03:14:13;;;;;;;3.20;2.22;;;14.40;95.80;;;;;;5053316;28;20225;-71
2022/05/30 03:16:39;;;;;;;1.88;1.77;;;14.40;96.30;;;;;;5073579;28;20675;-71
2022/05/30 03:19:05;;;;;;;1.92;1.75;;;14.40;96.30;;;;;;5055539;28;20187;-71
2022/05/30 03:21:30;;;;;;;4.03;2.00;;;14.40;96.70;;;;;;5067066;28;20213;-71
2022/05/30 03:23:58;;;;;;;1.17;1.17;;;;;;;;;;5068559;28;20682;-71
2022/05/30 03:26:24;;;;;;;2.50;1.40;;;;;;;;;;5083961;28;20188;-71
2022/05/30 03:28:50;;;;;;;1.02;1.02;;;14.30;96.40;;;;;;5063753;28;20183;-70
2022/05/30 03:31:16;;;;;;;0.85;0.82;;;;;;;;;;5070579;28;20190;-70
2022/05/30 03:33:42;;;;;;;1.25;1.25;;;14.30;96.60;;;;;;5065687;28;20251;-72
2022/05/30 03:36:25;;;;;;;1.23;1.23;;;14.30;96.40;;;;;;5067475;28;20175;-70
2022/05/30 03:38:50;;;;;;;2.47;1.58;;;14.30;96.40;;;;;;5057289;28;20179;-71
2022/05/30 03:41:16;;;;;;;1.80;1.40;;;;;;;;;;5069417;28;20289;-70
2022/05/30 03:43:42;;;;;;;1.60;1.10;;;14.30;96.80;;;;;;5062513;28;20298;-72
2022/05/30 03:46:08;;;;;;;0.70;0.70;;;14.30;96.90;;;;;;5067235;28;20185;-71
2022/05/30 03:48:34;;;;;;;1.35;1.27;;;14.30;96.80;;;;;;5068531;28;20566;-71
2022/05/30 03:51:02;;;;;;;1.38;1.02;;;14.30;96.60;;;;;;5066722;28;20187;-70
2022/05/30 03:53:28;;;;;;;2.13;1.25;;;14.30;96.80;;;;;;5071264;28;20271;-70
2022/05/30 03:55:54;;;;;;;1.20;1.20;;;;;;;;;;5065972;28;20962;-71
2022/05/30 03:58:21;;;;;;;2.17;1.42;;;14.30;97.10;;;;;;5072233;28;20179;-71
2022/05/30 04:00:47;;;;;;;0.95;0.95;;;14.30;97.10;;;;;;5058362;28;20215;-71
2022/05/30 04:03:13;;;;;;;0.95;0.95;;;14.30;96.80;;;;;;5072116;28;20214;-71
2022/05/30 04:05:39;;;;;;;2.08;1.30;;;14.30;96.90;;;;;;5069186;28;20222;-71
2022/05/30 04:08:05;;;;;;;1.63;0.85;;;14.40;97.00;;;;;;5068489;28;20186;-71
2022/05/30 04:10:31;;;;;;;3.88;1.25;;;;;;;;;;5074816;28;20188;-71
2022/05/30 04:13:07;;;;;;;0.75;0.75;;;14.30;96.80;;;;;;5072762;28;20192;-71
2022/05/30 04:15:33;;;;;;;1.08;1.08;;;14.20;97.00;;;;;;5065093;28;20190;-71
2022/05/30 04:17:59;;;;;;;0.90;0.90;;;14.20;96.90;;;;;;5067347;28;20194;-71
2022/05/30 04:20:25;;;;;;;1.25;1.17;;;14.20;96.80;;;;;;5069991;28;20315;-71
2022/05/30 04:22:51;;;;;;;1.35;1.25;;;14.30;96.90;;;;;;5068123;28;20225;-70
2022/05/30 04:25:17;;;;;;;1.95;1.17;;;14.30;96.80;;;;;;5074164;28;20175;-71
2022/05/30 04:27:43;;;;;;;1.27;1.20;;;;;;;;;;5067486;28;20214;-71
2022/05/30 04:30:09;;;;;;;1.13;1.08;;;14.30;96.60;;;;;;5070813;28;20675;-70
2022/05/30 04:32:36;;;;;;;0.93;0.93;;;14.30;96.50;;;;;;5073781;28;20255;-68
2022/05/30 04:35:03;;;;;;;0.75;0.75;;;14.40;96.80;;;;;;5050337;28;20187;-72
2022/05/30 04:37:29;;;;;;;0.93;0.90;;;14.40;96.90;;;;;;5060885;28;20903;-71
2022/05/30 04:39:55;;;;;;;2.88;1.58;;;14.40;96.80;;;;;;5067608;28;20265;-70
2022/05/30 04:42:22;;;;;;;2.03;1.15;;;14.50;96.60;;;;;;5070863;28;20644;-70
2022/05/30 04:44:48;;;;;;;1.02;1.02;;;14.40;96.30;;;;;;5065540;28;20183;-71
2022/05/30 04:47:14;;;;;;;2.58;1.38;;;;;;;;;;5073037;28;20716;-70
2022/05/30 04:49:39;;;;;;;2.65;1.30;;;14.50;96.50;;;;;;5070655;28;20301;-70
2022/05/30 04:52:06;;;;;;;1.23;1.13;;;14.60;96.30;;;;;;5069615;28;20768;-70
2022/05/30 04:54:31;;;;;;;1.67;1.58;;;14.60;96.30;;;;;;5071460;28;20547;-71
2022/05/30 04:56:58;;;;;;;1.52;0.80;;;;;;;;;;5071932;28;20196;-71
2022/05/30 04:59:24;;;;;;;1.35;1.25;;;14.70;96.40;;;;;;5053763;28;20216;-71
2022/05/30 05:01:50;;;;;;;0.98;0.98;;;14.70;96.50;;;;;;5065080;28;20228;-70
2022/05/30 05:04:16;;;;;;;1.30;1.27;;;;;;;;;;5065724;28;20624;-70
2022/05/30 05:06:45;;;;;;;1.88;1.77;;;14.80;96.70;;;;;;5072085;28;20236;-71
2022/05/30 05:09:29;;;;;;;1.35;1.35;;;14.90;96.60;;;;;;5069562;28;20187;-72
2022/05/30 05:11:55;;;;;;;2.13;1.98;;;14.90;96.60;;;;;;5066250;28;20197;-70
2022/05/30 05:14:21;;;;;;;1.83;1.65;;;;;;;;;;5063326;28;20195;-72
2022/05/30 05:16:47;;;;;;;3.15;2.42;;;15.10;96.60;;;;;;5069010;28;20206;-73
2022/05/30 05:19:13;;;;;;;2.03;1.92;;;;;;;;;;5063104;28;20183;-74
2022/05/30 05:21:43;;;;;;;1.95;1.85;;;15.20;96.50;;;;;;5065916;28;20241;-71
2022/05/30 05:24:09;;;;;;;6.53;1.88;;;15.30;96.60;;;;;;5066168;28;20186;-71
2022/05/30 05:26:35;;;;;;;2.30;1.88;;;15.40;96.40;;;;;;5065967;28;20187;-71
2022/05/30 05:29:01;;;;;;;2.10;2.00;;;15.40;96.30;;;;;;5069117;28;20281;-70
2022/05/30 05:31:34;;;;;;;3.75;2.15;;;15.50;96.20;;;;;;5069652;28;20257;-70
2022/05/30 05:34:02;;;;;;;2.10;2.00;;;15.60;96.00;;;;;;5052242;28;20206;-71
2022/05/30 05:36:33;;;;;;;3.45;2.75;;;15.70;96.00;;;;;;5055001;28;20183;-70
2022/05/30 05:38:59;;;;;;;3.70;3.40;;;15.70;96.10;;;;;;5061851;28;20187;-70
2022/05/30 05:41:26;;;;;;;2.85;2.65;;;15.80;95.80;;;;;;5059832;28;20901;-71
2022/05/30 05:43:55;;;;;;;3.67;3.38;;;15.80;95.70;;;;;;5072312;28;20190;-71
2022/05/30 05:46:26;;;;;;;6.53;3.58;;;15.90;95.60;;;;;;5063578;28;20183;-72
2022/05/30 05:48:53;;;;;;;3.10;2.70;;;16.00;95.50;;;;;;5071223;28;20183;-72
2022/05/30 05:51:19;;;;;;;3.28;2.97;;;16.10;95.50;;;;;;5069711;28;20183;-72
2022/05/30 05:53:45;;;;;;;4.20;2.75;;;16.10;95.50;;;;;;5073633;28;20289;-72
2022/05/30 05:56:17;;;;;;;5.60;3.22;;;16.20;95.30;;;;;;5070058;28;20174;-72
2022/05/30 05:58:43;;;;;;;3.75;2.97;;;16.30;95.20;;;;;;5068782;28;20189;-72
2022/05/30 06:01:15;;;;;;;3.20;2.95;;;16.40;95.10;;;;;;5069072;28;20190;-72
2022/05/30 06:03:41;;;;;;;2.50;2.40;;;16.50;95.00;;;;;;5072025;28;20725;-72
2022/05/30 06:06:07;;;;;;;3.78;3.47;;;16.50;94.90;;;;;;5070159;28;20190;-72
2022/05/30 06:08:33;;;;;;;2.75;2.55;;;16.60;94.80;;;;;;5066200;28;20183;-72
2022/05/30 06:11:05;;;;;;;3.22;3.00;;;16.70;95.00;;;;;;5067990;28;20318;-73
2022/05/30 06:13:32;;;;;;;3.35;3.15;;;16.80;94.90;;;;;;5066842;28;20182;-72
2022/05/30 06:15:58;;;;;;;3.15;2.55;;;16.90;94.40;;;;;;5064774;28;20602;-72
2022/05/30 06:18:24;;;;;;;3.28;2.97;;;;;;;;;;5067801;28;20183;-73
2022/05/30 06:20:56;;;;;;;4.68;2.83;;;17.10;94.30;;;;;;5068944;28;20178;-72
2022/05/30 06:23:22;;;;;;;3.75;3.45;;;17.20;94.10;;;;;;5064061;28;20215;-72
2022/05/30 06:25:47;;;;;;;3.92;2.83;;;17.30;93.40;;;;;;5068843;28;20656;-72
2022/05/30 06:28:13;;;;;;;4.60;2.97;;;;;;;;;;5068039;28;20242;-72
2022/05/30 06:30:39;;;;;;;3.67;3.25;;;17.50;93.20;;;;;;5064119;28;20191;-71
2022/05/30 06:33:05;;;;;;;3.95;3.65;;;;;;;;;;5066758;28;20209;-73
2022/05/30 06:35:31;;;;;;;4.00;3.28;;;17.60;93.20;;;;;;5072602;28;20228;-72
2022/05/30 06:37:56;;;;;;;3.83;3.35;;;17.70;93.20;;;;;;5066162;28;20211;-72
2022/05/30 06:40:22;;;;;;;3.35;3.05;;;17.80;92.80;;;;;;5065089;28;20205;-72
2022/05/30 06:42:48;;;;;;;4.07;3.65;;;;;;;;;;5071069;28;20332;-72
2022/05/30 06:45:14;;;;;;;6.05;3.35;;;17.90;92.60;;;;;;5067699;28;20222;-72
2022/05/30 06:47:40;;;;;;;3.15;2.95;;;;;;;;;;5066261;28;20218;-72
2022/05/30 06:50:06;;;;;;;4.13;3.78;;;18.10;91.80;;;;;;5066825;28;20216;-72
2022/05/30 06:52:34;;;;;;;4.22;2.92;;;18.20;92.10;;;;;;5070056;28;20186;-72
2022/05/30 06:54:59;;;;;;;4.05;3.33;;;18.40;91.70;;;;;;5067869;28;20179;-72
2022/05/30 07:00:10;;;;;;;3.85;3.28;;;18.60;91.80;;;;;;5064114;28;20334;-72
2022/05/30 07:02:36;;;;;;;2.97;2.78;;;18.80;91.90;;;;;;5066960;28;20209;-72
2022/05/30 07:05:03;;;;;;;2.70;2.60;;;19.00;91.70;;;;;;5066698;28;20660;-72
2022/05/30 07:07:29;;;;;;;4.13;3.65;;;;;;;;;;5066859;28;20190;-72
2022/05/30 07:09:55;;;;;;;3.65;3.35;;;;;;;;;;5065702;28;20178;-71
2022/05/30 07:12:21;;;;;;;3.65;3.00;;;;;;;;;;5067314;28;20785;-73
2022/05/30 07:14:47;;;;;;;2.97;2.72;;;19.50;90.90;;;;;;5066108;28;20663;-74
2022/05/30 07:17:13;;;;;;;5.43;3.38;;;19.70;90.00;;;;;;5067293;28;20179;-73
2022/05/30 07:19:39;;;;;;;2.90;2.70;;;19.80;89.90;;;;;;5069938;28;20192;-72
2022/05/30 07:22:05;;;;;;;3.85;3.65;;;19.90;89.20;;;;;;5066369;28;20215;-72
2022/05/30 07:24:31;;;;;;;5.82;3.50;;;20.00;89.00;;;;;;5070882;28;20218;-72
2022/05/30 07:26:57;;;;;;;3.42;3.22;;;;;;;;;;5071036;28;20210;-72
2022/05/30 07:29:26;;;;;;;4.07;3.60;;;20.20;87.10;;;;;;5067408;28;20218;-73
2022/05/30 07:32:00;;;;;;;7.30;3.53;;;20.20;86.70;;;;;;5086831;28;20183;-72
2022/05/30 07:34:26;;;;;;;4.28;3.30;;;20.20;87.00;;;;;;5062803;28;20256;-72
2022/05/30 07:36:52;;;;;;;3.53;3.22;;;20.20;87.20;;;;;;5068138;28;20190;-72
2022/05/30 07:39:18;;;;;;;3.15;2.97;;;20.20;87.30;;;;;;5065196;28;20184;-72
2022/05/30 07:41:44;;;;;;;3.80;3.60;;;20.20;87.10;;;;;;5063522;28;20219;-72
2022/05/30 07:44:10;;;;;;;4.22;3.63;;;20.20;86.60;;;;;;5066291;28;20636;-72
2022/05/30 07:46:39;;;;;;;9.02;4.03;;;20.30;86.80;;;;;;5066450;28;20248;-71
2022/05/30 07:49:04;;;;;;;3.67;3.38;;;20.30;86.50;;;;;;5064897;28;20179;-72
2022/05/30 07:51:31;;;;;;;3.05;2.85;;;;;;;;;;5062749;28;20183;-72
2022/05/30 07:53:57;;;;;;;2.88;2.78;;;20.30;86.60;;;;;;5060157;28;20277;-73
2022/05/30 07:56:23;;;;;;;3.40;3.20;;;;;;;;;;5070160;28;20197;-73
2022/05/30 07:58:49;;;;;;;3.53;3.20;;;20.30;86.10;;;;;;5063079;28;20766;-73
2022/05/30 08:01:18;;;;;;;3.72;3.00;;;20.40;86.10;;;;;;5062883;28;20357;-72
2022/05/30 08:03:45;;;;;;;3.88;2.90;;;20.40;86.10;;;;;;5053001;28;20187;-71
2022/05/30 08:06:16;;;;;;;2.90;2.72;;;20.40;86.30;;;;;;5064694;28;20605;-73
2022/05/30 08:08:43;;;;;;;3.63;3.35;;;20.40;84.80;;;;;;5063945;28;20186;-71
2022/05/30 08:11:11;;;;;;;3.47;3.25;;;20.50;85.80;;;;;;5061679;28;20737;-72
2022/05/30 08:13:38;;;;;;;3.17;2.90;;;20.50;85.40;;;;;;5055519;28;20860;-72
2022/05/30 08:16:04;;;;;;;3.35;3.05;;;20.60;85.80;;;;;;5062519;28;20186;-72
2022/05/30 08:18:31;;;;;;;7.55;3.47;;;20.60;85.50;;;;;;5060527;28;20648;-72
2022/05/30 08:20:58;;;;;;;3.97;3.20;;;20.60;85.10;;;;;;5066666;28;20179;-72
2022/05/30 08:23:24;;;;;;;3.05;2.92;;;20.70;84.60;;;;;;5067607;28;20256;-71
2022/05/30 08:25:53;;;;;;;3.13;2.83;;;20.70;84.80;;;;;;5063137;28;20194;-73
2022/05/30 08:28:19;;;;;;;4.25;2.67;;;20.80;84.70;;;;;;5061691;28;20235;-73
2022/05/30 08:30:45;;;;;;;3.55;3.25;;;20.90;83.80;;;;;;5067530;28;20663;-73
2022/05/30 08:33:13;;;;;;;3.30;2.85;;;20.90;84.10;;;;;;5056458;28;20218;-72
2022/05/30 08:35:39;;;;;;;2.63;2.53;;;21.00;85.00;;;;;;5063740;28;20336;-72
2022/05/30 08:38:05;;;;;;;2.90;2.70;;;21.10;84.90;;;;;;5066864;28;20262;-72
2022/05/30 08:43:32;;;;;;;2.67;2.58;;;21.30;82.40;;;;;;5062994;28;20269;-72
2022/05/30 08:46:12;;;;;;;3.10;2.67;;;21.30;81.10;;;;;;5059360;28;20186;-72
2022/05/30 08:48:46;;;;;;;2.90;2.70;;;21.40;82.00;;;;;;5071593;28;20178;-73
2022/05/30 08:51:14;;;;;;;3.20;2.88;;;;;;;;;;5066879;28;20601;-72
2022/05/30 08:53:54;;;;;;;3.22;2.95;;;21.50;82.60;;;;;;5066368;28;20182;-73
2022/05/30 08:56:39;;;;;;;2.40;2.30;;;21.70;82.40;;;;;;5070043;28;20672;-73
2022/05/30 08:59:23;;;;;;;2.60;2.42;;;21.80;82.30;;;;;;5062162;28;20274;-74
2022/05/30 09:02:20;;;;;;;5.45;2.75;;;21.90;81.00;;;;;;5069251;28;20679;-73
2022/05/30 09:05:02;;;;;;;3.03;2.78;;;22.00;80.80;;;;;;5068166;28;20210;-73
2022/05/30 09:07:35;;;;;;;2.72;2.53;;;22.10;80.90;;;;;;5065746;28;20256;-74
2022/05/30 09:10:06;;;;;;;2.95;2.72;;;22.10;79.90;;;;;;5067621;28;20190;-74
2022/05/30 09:12:38;;;;;;;3.13;2.92;;;22.20;80.20;;;;;;5065340;28;20185;-75
2022/05/30 09:15:16;;;;;;;3.05;2.85;;;22.30;79.90;;;;;;5065045;28;20275;-72
2022/05/30 09:17:47;;;;;;;2.70;2.50;;;22.40;78.70;;;;;;5066211;28;20212;-72
2022/05/30 09:20:16;;;;;;;3.22;2.85;;;22.50;80.10;;;;;;5064093;28;20252;-72
2022/05/30 09:22:43;;;;;;;5.22;2.53;;;22.50;81.00;;;;;;5064233;28;20207;-72
2022/05/30 09:27:59;;;;;;;2.63;2.50;;;22.70;80.00;;;;;;5067677;28;20277;-74
2022/05/30 09:30:35;;;;;;;2.40;2.20;;;22.80;76.90;;;;;;5073446;28;20269;-73
2022/05/30 09:33:07;;;;;;;2.25;2.22;;;22.80;79.00;;;;;;5069177;28;20659;-71
2022/05/30 09:35:34;;;;;;;2.38;2.28;;;22.90;79.50;;;;;;5062450;28;20207;-71
2022/05/30 09:38:16;;;;;;;3.65;2.80;;;23.00;79.50;;;;;;5062399;28;20644;-71
2022/05/30 09:40:49;;;;;;;3.53;2.78;;;23.10;79.60;;;;;;5066555;28;20190;-73
2022/05/30 09:43:28;;;;;;;3.97;3.13;;;23.20;77.00;;;;;;5067244;28;20222;-72
2022/05/30 09:45:54;;;;;;;3.85;2.75;;;23.30;76.20;;;;;;5068973;28;20175;-72
2022/05/30 09:48:20;;;;;;;3.35;3.15;;;23.40;77.40;;;;;;5071185;28;20572;-72
2022/05/30 09:50:56;;;;;;;5.10;3.42;;;23.40;76.80;;;;;;5071435;28;20210;-72
2022/05/30 09:53:52;;;;;;;3.55;3.35;;;23.50;76.50;;;;;;5050200;28;20183;-73
2022/05/30 09:56:20;;;;;;;4.07;2.92;;;23.60;74.50;;;;;;5013220;28;20636;-73
2022/05/30 09:59:00;;;;;;;2.33;2.22;;;23.70;75.50;;;;;;5010626;28;20260;-72
2022/05/30 10:01:29;;;;;;;2.38;2.28;;;23.80;75.20;;;;;;5015635;28;20224;-71
2022/05/30 10:04:13;;;;;;;6.88;3.40;;;24.00;75.30;;;;;;5013427;28;20181;-74
2022/05/30 10:06:39;;;;;;;4.70;3.13;;;;;;;;;;5008766;28;20203;-75
2022/05/30 10:09:22;;;;;;;3.03;2.88;;;24.40;73.90;;;;;;5013564;28;20184;-72
2022/05/30 10:11:54;;;;;;;2.35;2.25;;;24.60;73.00;;;;;;5014899;28;20966;-74
2022/05/30 10:14:25;;;;;;;3.05;2.80;;;24.90;72.10;;;;;;5006935;28;20923;-72
2022/05/30 10:17:10;;;;;;;2.97;2.78;;;25.20;71.80;;;;;;5012720;28;20267;-73
2022/05/30 10:19:40;;;;;;;5.53;3.15;;;25.50;71.50;;;;;;4994000;28;20253;-73
2022/05/30 10:28:28;;;;;;;4.75;2.65;;;26.60;68.40;;;;;;5015326;28;20335;-71
2022/05/30 10:31:27;;;;;;;2.53;2.35;;;27.20;66.70;;;;;;5014464;28;20207;-72
2022/05/30 10:34:08;;;;;;;4.53;2.10;;;27.70;65.50;;;;;;5066256;28;20303;-72
2022/05/30 10:36:57;;;;;;;3.80;2.15;;;28.20;63.70;;;;;;5067942;28;20193;-72
2022/05/30 10:39:38;;;;;;;2.28;2.13;;;28.80;63.30;;;;;;5069037;28;20597;-71
2022/05/30 10:42:27;;;;;;;7.75;2.10;;;29.40;60.50;;;;;;5065324;28;20218;-71
2022/05/30 10:45:01;;;;;;;5.57;2.42;;;30.00;60.10;;;;;;5065611;28;20564;-71
2022/05/30 10:47:41;;;;;;;2.65;2.55;;;30.60;60.50;;;;;;5066153;28;20183;-71
2022/05/30 10:50:46;;;;;;;2.60;2.50;;;31.30;59.50;;;;;;5063873;28;20285;-71
2022/05/30 10:53:50;;;;;;;4.30;3.55;;;31.70;58.70;;;;;;5088939;28;20183;-72
2022/05/30 10:56:20;;;;;;;3.15;2.45;;;32.40;58.30;;;;;;5065932;28;20183;-71
2022/05/30 10:59:10;;;;;;;3.58;2.50;;;32.80;57.20;;;;;;5067624;28;20178;-71
2022/05/30 11:01:47;;;;;;;2.80;2.70;;;32.90;55.90;;;;;;5067371;28;20610;-71
2022/05/30 11:04:13;;;;;;;3.53;2.40;;;;;;;;;;5067350;28;20239;-71
2022/05/30 11:06:42;;;;;;;3.00;2.65;;;33.40;54.00;;;;;;5068043;28;20186;-72
2022/05/30 11:09:34;;;;;;;2.13;1.98;;;33.50;54.80;;;;;;5066591;28;20184;-71
2022/05/30 11:12:00;;;;;;;2.47;2.17;;;;;;;;;;5066307;28;20193;-72
2022/05/30 11:14:32;;;;;;;2.45;2.30;;;34.20;54.60;;;;;;5062394;28;20214;-72
2022/05/30 11:17:46;;;;;;;2.72;2.40;;;34.50;53.40;;;;;;5068713;28;20185;-72
2022/05/30 11:20:12;;;;;;;1.70;1.60;;;;;;;;;;5002100;28;20274;-72
2022/05/30 11:22:45;;;;;;;3.40;2.63;;;35.20;52.70;;;;;;5004162;28;20891;-72
2022/05/30 11:25:16;;;;;;;2.42;2.15;;;35.40;54.20;;;;;;5004107;28;20278;-72
2022/05/30 11:27:42;;;;;;;8.05;2.40;;;;;;;;;;5004773;28;20231;-72
2022/05/30 11:30:29;;;;;;;2.92;2.45;;;35.80;52.70;;;;;;5007043;28;20693;-72
2022/05/30 11:32:55;;;;;;;2.42;2.33;;;;;;;;;;5003813;28;20206;-71
2022/05/30 11:35:36;;;;;;;2.58;2.35;;;36.10;51.30;;;;;;5008166;28;20206;-71
2022/05/30 11:38:14;;;;;;;2.42;2.30;;;35.90;51.60;;;;;;5006300;28;20252;-72
2022/05/30 11:40:49;;;;;;;3.58;2.13;;;36.00;52.40;;;;;;4983949;28;20203;-71
2022/05/30 11:43:52;;;;;;;2.78;2.28;;;35.80;52.30;;;;;;5002482;28;20658;-71
2022/05/30 11:46:33;;;;;;;2.42;2.30;;;35.80;51.50;;;;;;4981268;28;20189;-71
2022/05/30 11:49:06;;;;;;;3.13;2.17;;;36.00;50.30;;;;;;4983390;28;20672;-71
2022/05/30 11:51:43;;;;;;;1.67;1.52;;;36.30;49.70;;;;;;4982059;28;20617;-72
2022/05/30 11:54:30;;;;;;;3.60;1.85;;;36.70;49.30;;;;;;5003659;28;20623;-71
2022/05/30 11:57:27;;;;;;;3.20;1.90;;;37.10;49.90;;;;;;5030728;28;20223;-71
2022/05/30 12:00:09;;;;;;;1.98;1.88;;;37.50;46.80;;;;;;5023391;28;21123;-72
2022/05/30 12:02:59;;;;;;;2.17;2.08;;;37.70;46.30;;;;;;5002174;28;20222;-72
2022/05/30 12:05:49;;;;;;;2.10;1.33;;;38.00;46.60;;;;;;5024616;28;20187;-72
2022/05/30 12:08:15;;;;;;;1.73;1.63;;;;;;;;;;5027077;28;20179;-72
2022/05/30 12:11:19;;;;;;;2.20;1.95;;;38.30;46.20;;;;;;5021218;28;20708;-72
2022/05/30 12:13:57;;;;;;;2.15;2.05;;;38.40;45.70;;;;;;5020462;28;20698;-72
2022/05/30 12:16:41;;;;;;;3.08;1.83;;;38.10;48.00;;;;;;5029833;28;20282;-72
2022/05/30 12:24:49;;;;;;;4.72;1.77;;;38.50;45.30;;;;;;5062780;28;20690;-71
2022/05/30 12:27:30;;;;;;;2.08;1.98;;;38.90;46.00;;;;;;5054661;28;20178;-71
2022/05/30 12:29:57;;;;;;;5.50;2.05;;;39.40;45.00;;;;;;5067236;28;20548;-72
2022/05/30 12:32:24;;;;;;;4.65;1.95;;;39.50;42.70;;;;;;5070731;28;20180;-71
2022/05/30 12:35:05;;;;;;;1.80;1.70;;;39.60;44.30;;;;;;5049357;28;20473;-71
2022/05/30 12:37:48;;;;;;;4.72;1.98;;;39.50;44.70;;;;;;5070238;28;20190;-72
2022/05/30 12:40:26;;;;;;;2.08;1.98;;;39.30;44.00;;;;;;5083387;28;20205;-71
2022/05/30 12:43:06;;;;;;;2.50;2.00;;;39.30;44.30;;;;;;5062090;28;20217;-72
2022/05/30 12:45:35;;;;;;;2.40;1.77;;;39.60;44.00;;;;;;5063685;28;20194;-71
2022/05/30 12:48:19;;;;;;;1.52;1.52;;;39.90;43.40;;;;;;5071788;28;20194;-71
2022/05/30 12:51:14;;;;;;;1.33;1.33;;;40.40;45.30;;;;;;5064856;28;20250;-71
2022/05/30 12:53:54;;;;;;;2.80;1.63;;;40.80;41.40;;;;;;5022741;28;20341;-71
2022/05/30 12:56:58;;;;;;;2.78;1.40;;;41.20;41.90;;;;;;5018554;28;20234;-72
2022/05/30 12:59:33;;;;;;;1.63;1.40;;;41.60;42.40;;;;;;4969238;28;20228;-73
2022/05/30 13:02:01;;;;;;;2.20;1.73;;;41.50;45.10;;;;;;4982057;28;20275;-71
2022/05/30 13:04:34;;;;;;;6.07;1.70;;;41.50;41.90;;;;;;4966545;28;20193;-72
2022/05/30 13:07:01;;;;;;;1.70;1.60;;;41.60;41.40;;;;;;4979392;28;20204;-73
2022/05/30 13:09:48;;;;;;;2.75;1.35;;;41.70;42.30;;;;;;4978538;28;20243;-73
2022/05/30 13:12:51;;;;;;;3.22;1.50;;;41.90;40.20;;;;;;4988032;28;20192;-74
2022/05/30 13:15:30;;;;;;;2.55;1.30;;;42.00;40.90;;;;;;4978395;28;20590;-72
2022/05/30 13:18:01;;;;;;;1.33;1.33;;;42.20;43.10;;;;;;4980744;28;20205;-72
2022/05/30 13:20:50;;;;;;;2.00;1.90;;;42.00;41.30;;;;;;4964987;28;20236;-73
2022/05/30 13:23:25;;;;;;;4.05;1.85;;;41.90;44.10;;;;;;4977225;28;20216;-72
2022/05/30 13:25:51;;;;;;;2.13;1.70;;;41.40;40.20;;;;;;4979561;28;20810;-72
2022/05/30 13:28:28;;;;;;;2.78;1.50;;;41.30;44.10;;;;;;4975836;28;20269;-72
2022/05/30 13:30:56;;;;;;;2.80;1.60;;;40.80;42.90;;;;;;5003193;28;20204;-73
2022/05/30 13:33:27;;;;;;;3.65;1.75;;;40.50;43.40;;;;;;5016073;28;20195;-73
2022/05/30 13:36:03;;;;;;;1.42;1.42;;;39.90;40.70;;;;;;5062924;28;20606;-72
2022/05/30 13:38:37;;;;;;;2.25;1.50;;;39.20;42.20;;;;;;5065994;28;20826;-72
2022/05/30 13:41:23;;;;;;;1.63;1.45;;;38.80;43.50;;;;;;5070953;28;20299;-72
2022/05/30 13:43:57;;;;;;;1.30;1.30;;;39.00;43.80;;;;;;5063246;28;20301;-72
2022/05/30 13:46:33;;;;;;;1.88;1.40;;;39.10;44.10;;;;;;5067672;28;20178;-72